createdAt,value
2019-03-17T00:01:16.684Z,72.38
2019-03-17T00:03:47.593Z,72.30
2019-03-17T00:06:18.568Z,72.28
2019-03-17T00:08:51.452Z,71.95
2019-03-17T00:11:22.311Z,71.87
2019-03-17T00:13:53.166Z,71.46
2019-03-17T00:16:24.058Z,71.55
2019-03-17T00:18:54.846Z,71.34
2019-03-17T00:21:25.662Z,71.79
2019-03-17T00:23:56.477Z,71.77
2019-03-17T00:26:27.280Z,71.54
2019-03-17T00:28:58.130Z,70.94
2019-03-17T00:31:30.074Z,70.87
2019-03-17T00:34:00.882Z,71.10
2019-03-17T00:36:31.722Z,71.28
2019-03-17T00:39:02.685Z,70.69
2019-03-17T00:41:33.584Z,70.22
2019-03-17T00:44:04.375Z,69.98
2019-03-17T00:46:35.219Z,69.59
2019-03-17T00:49:06.089Z,69.34
2019-03-17T00:51:36.971Z,69.59
2019-03-17T00:54:07.773Z,69.28
2019-03-17T00:56:38.607Z,69.27
2019-03-17T00:59:09.486Z,68.66
2019-03-17T01:01:40.399Z,68.70
2019-03-17T01:04:11.193Z,68.36
2019-03-17T01:06:42.085Z,68.40
2019-03-17T01:09:13.886Z,68.76
2019-03-17T01:11:44.807Z,67.46
2019-03-17T01:14:15.595Z,67.74
2019-03-17T01:16:46.492Z,67.87
2019-03-17T01:19:17.351Z,67.79
2019-03-17T01:21:48.259Z,67.61
2019-03-17T01:24:19.112Z,67.51
2019-03-17T01:26:49.942Z,68.02
2019-03-17T01:29:21.913Z,67.15
2019-03-17T01:31:52.771Z,67.63
2019-03-17T01:34:23.589Z,67.47
2019-03-17T01:36:54.455Z,67.58
2019-03-17T01:39:25.248Z,67.49
2019-03-17T01:41:56.040Z,67.65
2019-03-17T01:44:26.825Z,67.53
2019-03-17T01:46:57.659Z,67.87
2019-03-17T01:49:28.546Z,67.78
2019-03-17T01:51:59.375Z,68.08
2019-03-17T01:54:30.189Z,67.99
2019-03-17T01:57:01.004Z,68.15
2019-03-17T01:59:31.784Z,68.30
2019-03-17T02:02:03.715Z,68.03
2019-03-17T02:04:34.512Z,68.01
2019-03-17T02:07:05.358Z,67.94
2019-03-17T02:09:37.252Z,67.94
2019-03-17T02:12:08.088Z,68.35
2019-03-17T02:14:38.876Z,68.09
2019-03-17T02:17:09.776Z,68.15
2019-03-17T02:19:40.532Z,68.38
2019-03-17T02:22:11.355Z,68.08
2019-03-17T02:24:42.141Z,68.09
2019-03-17T02:27:13.012Z,67.67
2019-03-17T02:29:43.869Z,67.68
2019-03-17T02:32:14.717Z,67.85
2019-03-17T02:34:45.492Z,67.97
2019-03-17T02:37:16.312Z,67.59
2019-03-17T02:39:47.103Z,67.53
2019-03-17T02:42:17.947Z,67.33
2019-03-17T02:44:48.700Z,67.48
2019-03-17T02:47:19.542Z,67.06
2019-03-17T02:49:50.389Z,67.42
2019-03-17T02:52:21.215Z,67.47
2019-03-17T02:54:51.999Z,67.54
2019-03-17T02:57:22.897Z,67.30
2019-03-17T02:59:53.673Z,67.37
2019-03-17T03:02:25.572Z,67.11
2019-03-17T03:04:56.380Z,67.23
2019-03-17T03:07:27.240Z,67.58
2019-03-17T03:09:58.914Z,67.34
2019-03-17T03:12:29.738Z,67.55
2019-03-17T03:15:00.587Z,67.28
2019-03-17T03:17:31.520Z,67.30
2019-03-17T03:20:02.348Z,67.22
2019-03-17T03:22:33.369Z,67.11
2019-03-17T03:25:05.767Z,67.13
2019-03-17T03:27:36.590Z,67.37
2019-03-17T03:30:12.245Z,67.47
2019-03-17T03:32:43.187Z,66.97
2019-03-17T03:35:14.064Z,67.44
2019-03-17T03:37:44.914Z,67.72
2019-03-17T03:40:15.764Z,67.29
2019-03-17T03:42:46.617Z,66.86
2019-03-17T03:45:17.412Z,66.95
2019-03-17T03:47:48.303Z,67.13
2019-03-17T03:50:19.074Z,66.82
2019-03-17T03:52:49.892Z,66.79
2019-03-17T03:55:20.678Z,66.75
2019-03-17T03:57:51.503Z,66.86
2019-03-17T04:00:22.289Z,66.97
2019-03-17T04:02:53.211Z,66.90
2019-03-17T04:05:24.028Z,67.21
2019-03-17T04:07:54.898Z,66.97
2019-03-17T04:10:26.579Z,66.84
2019-03-17T04:12:57.489Z,66.87
2019-03-17T04:15:28.287Z,66.85
2019-03-17T04:17:59.170Z,66.58
2019-03-17T04:20:29.972Z,66.49
2019-03-17T04:23:00.778Z,66.54
2019-03-17T04:25:31.592Z,66.56
2019-03-17T04:28:02.408Z,66.25
2019-03-17T04:30:33.244Z,66.38
2019-03-17T04:33:04.148Z,65.92
2019-03-17T04:35:34.941Z,65.98
2019-03-17T04:38:05.774Z,66.26
2019-03-17T04:40:36.570Z,66.45
2019-03-17T04:43:07.401Z,66.19
2019-03-17T04:45:38.192Z,65.74
2019-03-17T04:48:21.315Z,65.70
2019-03-17T04:50:52.184Z,65.77
2019-03-17T04:53:23.023Z,66.08
2019-03-17T04:55:53.809Z,65.28
2019-03-17T04:58:24.659Z,64.75
2019-03-17T05:00:56.555Z,65.00
2019-03-17T05:03:27.474Z,65.29
2019-03-17T05:05:58.256Z,65.52
2019-03-17T05:08:29.175Z,64.85
2019-03-17T05:11:00.904Z,64.82
2019-03-17T05:13:31.910Z,64.55
2019-03-17T05:16:02.786Z,64.81
2019-03-17T05:18:33.667Z,64.33
2019-03-17T05:21:04.517Z,64.19
2019-03-17T05:23:35.346Z,64.17
2019-03-17T05:26:06.143Z,64.07
2019-03-17T05:28:38.085Z,64.04
2019-03-17T05:31:09.305Z,64.17
2019-03-17T05:33:40.108Z,63.86
2019-03-17T05:36:11.021Z,63.49
2019-03-17T05:38:42.012Z,63.42
2019-03-17T05:41:12.793Z,63.49
2019-03-17T05:43:43.707Z,63.81
2019-03-17T05:46:14.542Z,63.49
2019-03-17T05:48:45.443Z,63.48
2019-03-17T05:51:16.220Z,62.76
2019-03-17T05:53:47.080Z,63.18
2019-03-17T05:56:17.920Z,62.87
2019-03-17T05:58:48.784Z,62.89
2019-03-17T06:01:19.604Z,62.14
2019-03-17T06:03:50.480Z,62.69
2019-03-17T06:06:21.285Z,62.78
2019-03-17T06:08:52.185Z,63.04
2019-03-17T06:11:24.660Z,62.83
2019-03-17T06:13:55.476Z,62.10
2019-03-17T06:16:26.264Z,62.59
2019-03-17T06:18:57.282Z,62.78
2019-03-17T06:21:28.206Z,62.65
2019-03-17T06:23:59.024Z,62.77
2019-03-17T06:26:29.828Z,63.01
2019-03-17T06:29:00.669Z,62.54
2019-03-17T06:31:31.489Z,62.63
2019-03-17T06:34:02.425Z,62.48
2019-03-17T06:36:33.188Z,62.72
2019-03-17T06:39:05.789Z,62.56
2019-03-17T06:41:36.639Z,62.30
2019-03-17T06:44:07.449Z,62.24
2019-03-17T06:46:38.230Z,61.95
2019-03-17T06:49:09.095Z,62.04
2019-03-17T06:51:39.924Z,61.68
2019-03-17T06:54:10.830Z,61.62
2019-03-17T06:56:41.798Z,61.84
2019-03-17T06:59:12.709Z,61.68
2019-03-17T07:01:43.578Z,61.39
2019-03-17T07:04:14.477Z,61.54
2019-03-17T07:06:45.268Z,61.58
2019-03-17T07:09:18.009Z,60.87
2019-03-17T07:11:49.708Z,60.64
2019-03-17T07:14:20.732Z,60.49
2019-03-17T07:16:51.634Z,60.53
2019-03-17T07:19:22.788Z,60.03
2019-03-17T07:21:53.577Z,59.65
2019-03-17T07:24:24.422Z,59.71
2019-03-17T07:26:55.257Z,59.52
2019-03-17T07:29:26.251Z,59.46
2019-03-17T07:31:57.174Z,59.02
2019-03-17T07:34:28.206Z,58.86
2019-03-17T07:36:58.981Z,58.47
2019-03-17T07:39:29.982Z,58.51
2019-03-17T07:42:01.014Z,58.10
2019-03-17T07:44:32.625Z,57.95
2019-03-17T07:47:03.795Z,57.83
2019-03-17T07:49:34.796Z,57.33
2019-03-17T07:52:05.883Z,57.44
2019-03-17T07:54:36.919Z,58.54
2019-03-17T07:57:08.043Z,58.36
2019-03-17T07:59:39.000Z,58.34
2019-03-17T08:02:10.901Z,58.50
2019-03-17T08:04:46.044Z,58.41
2019-03-17T08:07:15.342Z,58.55
2019-03-17T08:09:46.228Z,58.11
2019-03-17T08:12:18.101Z,57.85
2019-03-17T08:14:49.071Z,58.17
2019-03-17T08:17:19.976Z,58.38
2019-03-17T08:19:51.008Z,58.03
2019-03-17T08:22:22.162Z,57.95
2019-03-17T08:24:53.294Z,57.69
2019-03-17T08:27:24.090Z,57.40
2019-03-17T08:29:55.026Z,55.97
2019-03-17T08:32:26.046Z,56.63
2019-03-17T08:34:57.561Z,56.46
2019-03-17T08:37:28.753Z,56.06
2019-03-17T08:40:00.367Z,55.86
2019-03-17T08:42:34.438Z,55.78
2019-03-17T08:45:07.717Z,56.36
2019-03-17T08:47:38.676Z,57.30
2019-03-17T08:50:11.490Z,56.82
2019-03-17T08:52:42.781Z,56.46
2019-03-17T08:55:13.855Z,55.84
2019-03-17T08:57:44.729Z,55.18
2019-03-17T09:00:23.413Z,55.82
2019-03-17T09:02:54.399Z,56.26
2019-03-17T09:05:25.245Z,56.21
2019-03-17T09:07:56.162Z,56.79
2019-03-17T09:10:27.236Z,56.64
2019-03-17T09:13:08.531Z,57.14
2019-03-17T09:15:44.195Z,57.04
2019-03-17T09:18:15.114Z,56.91
2019-03-17T09:20:50.279Z,56.65
2019-03-17T09:23:28.623Z,56.42
2019-03-17T09:25:59.643Z,56.32
2019-03-17T09:28:30.671Z,55.97
2019-03-17T09:31:07.306Z,56.08
2019-03-17T09:33:37.561Z,55.49
2019-03-17T09:36:10.659Z,55.56
2019-03-17T09:38:47.405Z,55.10
2019-03-17T09:41:18.787Z,54.99
2019-03-17T09:43:49.686Z,54.06
2019-03-17T09:46:20.771Z,53.47
2019-03-17T09:48:52.230Z,53.24
2019-03-17T09:51:23.210Z,53.39
2019-03-17T09:53:54.155Z,52.47
2019-03-17T09:56:25.930Z,52.89
2019-03-17T09:58:56.802Z,52.05
2019-03-17T10:01:29.060Z,52.82
2019-03-17T10:03:59.987Z,52.31
2019-03-17T10:06:31.043Z,52.76
2019-03-17T10:09:01.985Z,51.97
2019-03-17T10:11:34.126Z,50.73
2019-03-17T10:14:05.746Z,50.53
2019-03-17T10:16:36.596Z,50.65
2019-03-17T10:19:07.724Z,50.72
2019-03-17T10:21:38.698Z,50.91
2019-03-17T10:24:09.738Z,50.77
2019-03-17T10:26:40.832Z,50.77
2019-03-17T10:29:11.799Z,50.59
2019-03-17T10:31:42.756Z,50.42
2019-03-17T10:34:13.644Z,49.28
2019-03-17T10:36:44.611Z,49.19
2019-03-17T10:39:15.964Z,48.56
2019-03-17T10:41:46.960Z,49.39
2019-03-17T10:46:47.740Z,49.86
2019-03-17T10:49:18.641Z,49.09
2019-03-17T10:51:49.713Z,49.00
2019-03-17T10:54:20.721Z,48.97
2019-03-17T10:56:51.701Z,48.20
2019-03-17T10:59:22.731Z,48.03
2019-03-17T11:01:53.710Z,47.96
2019-03-17T11:04:24.746Z,47.89
2019-03-17T11:06:55.615Z,48.32
2019-03-17T11:09:26.494Z,48.50
2019-03-17T11:11:57.469Z,48.84
2019-03-17T11:14:29.158Z,48.67
2019-03-17T11:17:00.129Z,48.54
2019-03-17T11:19:31.007Z,48.31
2019-03-17T11:22:02.076Z,47.59
2019-03-17T11:24:32.952Z,47.59
2019-03-17T11:27:03.985Z,47.15
2019-03-17T11:29:34.892Z,47.48
2019-03-17T11:32:06.752Z,47.55
2019-03-17T11:34:37.853Z,46.83
2019-03-17T11:37:08.893Z,45.93
2019-03-17T11:39:39.822Z,45.52
2019-03-17T11:42:10.869Z,47.09
2019-03-17T11:44:41.854Z,45.60
2019-03-17T11:47:12.703Z,45.14
2019-03-17T11:49:46.054Z,45.33
2019-03-17T11:52:16.401Z,45.04
2019-03-17T11:54:47.465Z,45.13
2019-03-17T11:57:18.600Z,45.37
2019-03-17T11:59:49.659Z,45.30
2019-03-17T12:02:26.424Z,44.50
2019-03-17T12:04:53.328Z,45.14
2019-03-17T12:07:24.300Z,44.24
2019-03-17T12:09:55.319Z,44.33
2019-03-17T12:12:26.239Z,44.58
2019-03-17T12:14:57.978Z,44.22
2019-03-17T12:17:28.858Z,44.07
2019-03-17T12:19:59.844Z,44.14
2019-03-17T12:22:30.850Z,43.40
2019-03-17T12:25:01.762Z,43.44
2019-03-17T12:27:32.789Z,43.85
2019-03-17T12:30:06.003Z,42.73
2019-03-17T12:32:36.601Z,42.72
2019-03-17T12:35:07.478Z,42.25
2019-03-17T12:37:38.422Z,41.80
2019-03-17T12:40:09.442Z,42.48
2019-03-17T12:42:40.445Z,42.57
2019-03-17T12:45:11.669Z,43.02
2019-03-17T12:47:42.646Z,42.82
2019-03-17T12:50:21.946Z,41.92
2019-03-17T12:52:52.804Z,41.24
2019-03-17T12:55:23.733Z,41.83
2019-03-17T12:57:54.584Z,41.58
2019-03-17T13:00:27.680Z,41.98
2019-03-17T13:02:58.544Z,41.73
2019-03-17T13:05:29.449Z,41.43
2019-03-17T13:08:00.385Z,41.50
2019-03-17T13:10:31.548Z,41.09
2019-03-17T13:13:02.718Z,40.47
2019-03-17T13:15:34.495Z,40.88
2019-03-17T13:18:05.507Z,41.00
2019-03-17T13:20:36.277Z,41.21
2019-03-17T13:23:07.219Z,40.90
2019-03-17T13:25:38.383Z,40.41
2019-03-17T13:28:09.311Z,40.82
2019-03-17T13:30:40.428Z,40.94
2019-03-17T13:33:11.484Z,41.13
2019-03-17T13:35:43.309Z,41.17
2019-03-17T13:38:14.129Z,41.38
2019-03-17T13:40:44.938Z,42.05
2019-03-17T13:43:15.885Z,41.53
2019-03-17T13:45:46.842Z,42.13
2019-03-17T13:48:17.925Z,41.36
2019-03-17T13:50:48.727Z,41.57
2019-03-17T13:53:19.594Z,41.62
2019-03-17T13:55:50.535Z,41.53
2019-03-17T13:58:21.658Z,42.67
2019-03-17T14:00:52.937Z,42.38
2019-03-17T14:03:24.111Z,41.63
2019-03-17T14:05:55.288Z,43.79
2019-03-17T14:08:26.594Z,42.30
2019-03-17T14:10:57.681Z,42.05
2019-03-17T14:13:29.881Z,42.40
2019-03-17T14:16:01.741Z,42.67
2019-03-17T14:18:55.754Z,42.75
2019-03-17T14:21:11.755Z,42.43
2019-03-17T14:23:42.867Z,42.77
2019-03-17T14:26:14.100Z,42.81
2019-03-17T14:28:45.282Z,42.75
2019-03-17T14:31:19.303Z,42.39
2019-03-17T14:33:51.397Z,41.86
2019-03-17T14:36:32.958Z,42.04
2019-03-17T14:39:04.893Z,42.28
2019-03-17T14:41:43.656Z,41.65
2019-03-17T14:44:21.653Z,41.62
2019-03-17T14:46:56.896Z,41.52
2019-03-17T14:49:34.149Z,41.72
2019-03-17T14:52:15.162Z,42.25
2019-03-17T14:54:55.792Z,42.48
2019-03-17T14:57:46.364Z,42.99
2019-03-17T15:01:01.405Z,43.68
2019-03-17T15:03:41.247Z,43.65
2019-03-17T15:06:12.319Z,43.96
2019-03-17T15:08:43.283Z,44.22
2019-03-17T15:11:21.757Z,44.53
2019-03-17T15:13:55.823Z,44.41
2019-03-17T15:16:32.465Z,44.67
2019-03-17T15:19:07.925Z,44.95
2019-03-17T15:21:42.124Z,45.25
2019-03-17T15:24:14.809Z,44.80
2019-03-17T15:26:45.721Z,44.93
2019-03-17T15:29:16.684Z,44.94
2019-03-17T15:31:49.383Z,44.86
2019-03-17T15:34:23.551Z,45.03
2019-03-17T15:36:54.702Z,45.27
2019-03-17T15:39:27.248Z,45.06
2019-03-17T15:42:03.615Z,45.51
2019-03-17T15:44:35.142Z,45.90
2019-03-17T15:47:09.873Z,45.57
2019-03-17T15:49:41.117Z,45.85
2019-03-17T15:52:15.166Z,45.77
2019-03-17T15:54:48.085Z,45.92
2019-03-17T15:57:20.650Z,46.17
2019-03-17T15:59:53.257Z,46.46
2019-03-17T16:02:27.124Z,46.37
2019-03-17T16:05:02.213Z,46.81
2019-03-17T16:07:42.235Z,46.94
2019-03-17T16:10:09.171Z,47.10
2019-03-17T16:13:05.416Z,47.03
2019-03-17T16:15:40.242Z,47.14
2019-03-17T16:18:15.164Z,47.28
2019-03-17T16:20:48.327Z,47.62
2019-03-17T16:23:21.297Z,48.40
2019-03-17T16:25:54.218Z,50.32
2019-03-17T16:28:27.155Z,51.93
2019-03-17T16:31:01.084Z,52.93
2019-03-17T16:33:35.488Z,53.37
2019-03-17T16:36:08.117Z,53.87
2019-03-17T16:38:39.328Z,54.31
2019-03-17T16:41:12.337Z,54.33
2019-03-17T16:43:43.411Z,54.61
2019-03-17T16:46:15.402Z,55.29
2019-03-17T16:48:46.574Z,56.12
2019-03-17T16:51:17.651Z,56.56
2019-03-17T16:53:48.824Z,56.77
2019-03-17T16:56:19.752Z,57.49
2019-03-17T16:58:50.777Z,57.93
2019-03-17T17:01:21.829Z,58.47
2019-03-17T17:03:52.973Z,58.95
2019-03-17T17:06:24.174Z,59.19
2019-03-17T17:08:55.386Z,59.81
2019-03-17T17:11:26.392Z,60.07
2019-03-17T17:13:57.481Z,60.42
2019-03-17T17:16:29.709Z,60.66
2019-03-17T17:19:01.803Z,60.79
2019-03-17T17:21:32.719Z,61.19
2019-03-17T17:24:03.700Z,61.26
2019-03-17T17:26:37.640Z,61.25
2019-03-17T17:29:07.653Z,61.58
2019-03-17T17:31:38.709Z,61.88
2019-03-17T17:34:09.756Z,61.58
2019-03-17T17:36:40.759Z,61.55
2019-03-17T17:39:11.841Z,61.85
2019-03-17T17:41:42.767Z,61.98
2019-03-17T17:44:13.925Z,62.28
2019-03-17T17:46:44.988Z,62.31
2019-03-17T17:49:16.181Z,62.58
2019-03-17T17:51:47.325Z,62.15
2019-03-17T17:54:18.520Z,62.22
2019-03-17T17:56:49.747Z,62.36
2019-03-17T17:59:20.679Z,62.46
2019-03-17T18:01:51.719Z,62.68
2019-03-17T18:04:22.688Z,62.73
2019-03-17T18:06:53.617Z,62.56
2019-03-17T18:09:24.751Z,62.49
2019-03-17T18:11:55.840Z,62.76
2019-03-17T18:14:26.835Z,62.98
2019-03-17T18:16:57.767Z,63.30
2019-03-17T18:19:29.545Z,63.04
2019-03-17T18:22:00.643Z,63.34
2019-03-17T18:24:31.767Z,63.49
2019-03-17T18:27:02.824Z,63.77
2019-03-17T18:29:33.854Z,63.62
2019-03-17T18:32:05.745Z,63.58
2019-03-17T18:34:36.808Z,63.88
2019-03-17T18:37:07.852Z,63.77
2019-03-17T18:39:38.851Z,63.69
2019-03-17T18:42:09.904Z,63.17
2019-03-17T18:44:41.923Z,63.42
2019-03-17T18:47:13.064Z,63.63
2019-03-17T18:49:44.211Z,63.96
2019-03-17T18:52:16.873Z,64.11
2019-03-17T18:54:47.860Z,64.38
2019-03-17T18:57:22.118Z,64.46
2019-03-17T18:59:53.521Z,64.24
2019-03-17T19:02:24.608Z,64.46
2019-03-17T19:04:55.547Z,64.67
2019-03-17T19:07:26.473Z,65.03
2019-03-17T19:09:57.499Z,64.88
2019-03-17T19:12:28.424Z,64.77
2019-03-17T19:14:59.351Z,64.99
2019-03-17T19:17:30.290Z,65.27
2019-03-17T19:20:02.132Z,65.21
2019-03-17T19:22:33.120Z,65.54
2019-03-17T19:25:06.649Z,65.41
2019-03-17T19:27:37.642Z,65.79
2019-03-17T19:30:13.965Z,65.96
2019-03-17T19:32:45.562Z,66.14
2019-03-17T19:35:16.572Z,65.97
2019-03-17T19:37:47.565Z,65.74
2019-03-17T19:40:26.931Z,66.06
2019-03-17T19:43:03.933Z,66.38
2019-03-17T19:45:35.818Z,66.31
2019-03-17T19:48:07.169Z,66.79
2019-03-17T19:50:39.205Z,66.86
2019-03-17T19:53:17.008Z,66.68
2019-03-17T19:55:49.823Z,66.81
2019-03-17T19:58:20.885Z,66.83
2019-03-17T20:00:55.568Z,67.07
2019-03-17T20:03:30.689Z,67.19
2019-03-17T20:06:05.071Z,67.24
2019-03-17T20:08:38.684Z,67.41
2019-03-17T20:11:15.748Z,67.59
2019-03-17T20:13:46.732Z,67.69
2019-03-17T20:16:21.666Z,67.75
2019-03-17T20:18:52.704Z,67.75
2019-03-17T20:21:33.098Z,67.79
2019-03-17T20:24:10.906Z,67.77
2019-03-17T20:26:43.842Z,68.22
2019-03-17T20:29:17.941Z,68.13
2019-03-17T20:31:51.883Z,68.20
2019-03-17T20:34:27.328Z,68.22
2019-03-17T20:36:58.975Z,67.86
2019-03-17T20:39:30.972Z,67.98
2019-03-17T20:42:06.579Z,68.05
2019-03-17T20:44:42.361Z,68.38
2019-03-17T20:47:19.756Z,68.58
2019-03-17T20:49:52.467Z,68.78
2019-03-17T20:52:31.534Z,68.58
2019-03-17T20:55:10.964Z,68.54
2019-03-17T20:57:52.937Z,68.43
2019-03-17T21:00:24.008Z,68.57
2019-03-17T21:02:56.574Z,68.68
2019-03-17T21:05:31.969Z,68.59
2019-03-17T21:08:05.424Z,68.88
2019-03-17T21:10:37.318Z,68.78
2019-03-17T21:13:15.709Z,68.93
2019-03-17T21:15:47.576Z,68.97
2019-03-17T21:18:17.166Z,69.10
2019-03-17T21:20:48.154Z,68.92
2019-03-17T21:23:21.679Z,68.87
2019-03-17T21:25:52.151Z,69.22
2019-03-17T21:28:27.465Z,69.69
2019-03-17T21:30:57.584Z,69.58
2019-03-17T21:33:29.925Z,69.32
2019-03-17T21:36:02.595Z,69.67
2019-03-17T21:38:35.086Z,69.68
2019-03-17T21:41:09.239Z,70.02
2019-03-17T21:43:41.405Z,70.03
2019-03-17T21:46:15.574Z,70.10
2019-03-17T21:48:47.931Z,70.20
2019-03-17T21:51:18.911Z,70.35
2019-03-17T21:53:50.003Z,70.53
2019-03-17T21:56:20.965Z,70.38
2019-03-17T21:58:53.113Z,70.31
2019-03-17T22:01:24.055Z,70.49
2019-03-17T22:03:55.071Z,70.68
2019-03-17T22:06:26.100Z,70.97
2019-03-17T22:08:58.257Z,70.96
2019-03-17T22:11:29.292Z,71.11
2019-03-17T22:14:11.625Z,71.09
2019-03-17T22:16:33.023Z,71.03
2019-03-17T22:19:04.023Z,71.33
2019-03-17T22:21:34.998Z,71.24
2019-03-17T22:24:06.812Z,71.51
2019-03-17T22:26:37.955Z,71.42
2019-03-17T22:29:09.038Z,71.05
2019-03-17T22:31:40.110Z,71.17
2019-03-17T22:34:11.200Z,71.26
2019-03-17T22:36:42.196Z,71.49
2019-03-17T22:39:13.199Z,71.53
2019-03-17T22:41:45.373Z,71.40
2019-03-17T22:44:24.131Z,71.60
2019-03-17T22:46:48.955Z,71.73
2019-03-17T22:49:19.907Z,71.91
2019-03-17T22:51:50.803Z,71.76
2019-03-17T22:54:21.704Z,71.62
2019-03-17T22:56:52.618Z,71.87
2019-03-17T22:59:23.632Z,71.87
2019-03-17T23:01:54.645Z,72.03
2019-03-17T23:04:25.651Z,71.88
2019-03-17T23:06:57.178Z,71.86
2019-03-17T23:09:28.131Z,71.71
2019-03-17T23:11:59.127Z,71.58
2019-03-17T23:14:36.586Z,71.39
2019-03-17T23:17:03.044Z,71.18
2019-03-17T23:19:34.012Z,71.03
2019-03-17T23:22:04.988Z,70.83
2019-03-17T23:24:36.872Z,70.96
2019-03-17T23:27:09.564Z,71.00
2019-03-17T23:29:40.594Z,70.82
2019-03-17T23:32:12.149Z,71.08
2019-03-17T23:34:43.647Z,71.31
2019-03-17T23:37:18.724Z,71.41
2019-03-17T23:39:49.744Z,71.14
2019-03-17T23:42:22.515Z,71.49
2019-03-17T23:44:54.216Z,71.79
2019-03-17T23:47:28.014Z,71.84
2019-03-17T23:49:59.027Z,71.91
2019-03-17T23:52:30.261Z,71.90
2019-03-17T23:55:01.199Z,71.98
2019-03-17T23:57:33.541Z,72.28
